Time;durP1;ratioP1;P1;durP2;ratioP2;P2;SDS_P1;SDS_P2;PMS_P1;PMS_P2;Temp;Humidity;BMP_temperature;BMP_pressure;BME280_temperature;BME280_humidity;BME280_pressure;Samples;Min_cycle;Max_cycle;Signal;HPM_P1;HPM_P2
2022/09/26 00:01:36;;;;;;;12.63;4.00;;;17.50;64.70;;;;;;5053486;28;20238;-70
2022/09/26 00:04:14;;;;;;;13.17;4.00;;;17.50;65.20;;;;;;5061805;28;20685;-68
2022/09/26 00:06:42;;;;;;;15.27;3.87;;;17.40;65.80;;;;;;5062943;28;20180;-69
2022/09/26 00:09:10;;;;;;;6.33;3.53;;;17.20;65.50;;;;;;5072108;28;20206;-69
2022/09/26 00:11:38;;;;;;;7.93;3.57;;;17.10;65.50;;;;;;5052934;28;20278;-68
2022/09/26 00:14:17;;;;;;;10.33;3.60;;;17.00;65.90;;;;;;5053128;28;20233;-71
2022/09/26 00:16:45;;;;;;;9.03;2.90;;;17.10;65.30;;;;;;5048829;28;20189;-68
2022/09/26 00:19:13;;;;;;;7.87;2.87;;;17.00;66.00;;;;;;5050134;28;20632;-71
2022/09/26 00:21:40;;;;;;;7.33;2.90;;;17.10;65.00;;;;;;5052771;28;20185;-70
2022/09/26 00:24:08;;;;;;;9.63;2.80;;;17.30;64.90;;;;;;5052914;28;20300;-70
2022/09/26 00:26:37;;;;;;;7.60;2.80;;;17.50;64.50;;;;;;5048092;28;20215;-69
2022/09/26 00:29:08;;;;;;;6.50;2.47;;;17.50;62.90;;;;;;5049251;28;20552;-69
2022/09/26 00:31:40;;;;;;;7.90;3.23;;;17.70;62.80;;;;;;5062693;28;20183;-71
2022/09/26 00:34:09;;;;;;;7.47;2.57;;;17.70;62.50;;;;;;5052404;28;20281;-70
2022/09/26 00:36:37;;;;;;;9.40;2.67;;;17.80;62.60;;;;;;5050217;28;20724;-68
2022/09/26 00:39:08;;;;;;;12.50;3.13;;;17.90;62.50;;;;;;5046426;28;20191;-70
2022/09/26 00:41:37;;;;;;;6.53;2.70;;;17.90;63.10;;;;;;5054620;28;20646;-71
2022/09/26 00:44:35;;;;;;;5.20;2.30;;;18.00;62.00;;;;;;5051585;28;20252;-70
2022/09/26 00:47:05;;;;;;;5.60;2.60;;;18.20;61.90;;;;;;5052461;28;20602;-71
2022/09/26 00:49:37;;;;;;;7.60;2.93;;;18.30;60.80;;;;;;5064990;28;20187;-68
2022/09/26 00:52:27;;;;;;;7.17;2.90;;;18.30;60.40;;;;;;5052456;28;20176;-69
2022/09/26 00:54:57;;;;;;;8.07;2.47;;;18.60;60.30;;;;;;5052814;28;20316;-68
2022/09/26 00:57:39;;;;;;;7.53;2.30;;;18.80;58.90;;;;;;5062017;28;20650;-72
2022/09/26 01:00:13;;;;;;;7.13;2.40;;;18.90;58.70;;;;;;5052684;28;20198;-71
2022/09/26 01:02:42;;;;;;;8.00;3.03;;;18.90;58.10;;;;;;5044490;28;20222;-72
2022/09/26 01:05:14;;;;;;;10.73;2.70;;;19.10;58.60;;;;;;5051950;28;20589;-70
2022/09/26 01:07:42;;;;;;;7.43;2.60;;;19.30;59.10;;;;;;5053913;28;20202;-71
2022/09/26 01:10:10;;;;;;;9.80;3.30;;;19.70;57.80;;;;;;5056907;28;20184;-71
2022/09/26 01:12:38;;;;;;;9.97;3.23;;;19.70;57.80;;;;;;5052247;28;20281;-71
2022/09/26 01:15:07;;;;;;;11.13;3.17;;;20.00;57.50;;;;;;5052432;28;20175;-71
2022/09/26 01:17:38;;;;;;;8.00;3.30;;;20.10;56.90;;;;;;5051605;28;20573;-68
2022/09/26 01:20:11;;;;;;;9.50;3.03;;;20.20;57.00;;;;;;5045718;28;20190;-69
2022/09/26 01:22:56;;;;;;;12.87;3.50;;;20.30;56.50;;;;;;5052167;28;20176;-68
2022/09/26 01:25:55;;;;;;;9.00;3.23;;;20.00;57.30;;;;;;5051049;28;20637;-67
2022/09/26 01:28:47;;;;;;;8.37;2.93;;;19.80;59.50;;;;;;5043390;28;20192;-69
2022/09/26 01:31:25;;;;;;;9.13;3.40;;;20.00;59.20;;;;;;5051455;28;20203;-70
2022/09/26 01:34:12;;;;;;;9.83;3.53;;;19.80;59.00;;;;;;5051963;28;20207;-68
2022/09/26 01:37:18;;;;;;;7.53;2.93;;;19.40;59.90;;;;;;5051870;28;20183;-71
2022/09/26 01:40:02;;;;;;;9.73;3.43;;;19.80;59.40;;;;;;5030920;28;20680;-70
2022/09/26 01:42:58;;;;;;;7.00;3.50;;;19.90;59.30;;;;;;5032182;28;20251;-69
2022/09/26 01:45:50;;;;;;;10.33;3.67;;;19.90;58.90;;;;;;5032434;28;20191;-72
2022/09/26 01:48:29;;;;;;;10.43;3.50;;;20.10;59.60;;;;;;5048465;28;20176;-70
2022/09/26 01:51:35;;;;;;;7.97;3.30;;;20.50;57.50;;;;;;5051927;28;20184;-69
2022/09/26 01:54:34;;;;;;;14.57;3.53;;;20.50;57.70;;;;;;5054151;28;20550;-67
2022/09/26 01:57:06;;;;;;;9.43;2.77;;;20.00;59.40;;;;;;5049268;28;20207;-70
2022/09/26 01:59:40;;;;;;;7.67;2.60;;;20.00;59.90;;;;;;5051971;28;20183;-69
2022/09/26 02:02:20;;;;;;;8.43;2.70;;;20.20;59.60;;;;;;5056572;28;20654;-69
2022/09/26 02:04:52;;;;;;;5.73;2.37;;;20.20;60.90;;;;;;5054858;28;20195;-67
2022/09/26 02:07:30;;;;;;;6.33;2.83;;;20.20;60.40;;;;;;5055487;28;20180;-68
2022/09/26 02:10:03;;;;;;;7.27;2.83;;;19.70;60.50;;;;;;5055426;28;20253;-71
2022/09/26 02:12:35;;;;;;;8.20;3.37;;;19.90;61.40;;;;;;5055316;28;20545;-67
2022/09/26 02:15:08;;;;;;;6.27;2.97;;;20.00;60.30;;;;;;5055596;28;20260;-70
2022/09/26 02:17:48;;;;;;;6.03;2.97;;;20.30;60.30;;;;;;5055270;28;20216;-68
2022/09/26 02:20:25;;;;;;;6.60;2.67;;;20.00;60.20;;;;;;5054894;28;20263;-69
2022/09/26 02:22:52;;;;;;;7.10;2.63;;;20.30;59.80;;;;;;5051510;28;20204;-71
2022/09/26 02:25:19;;;;;;;9.67;3.00;;;20.40;59.90;;;;;;5055166;28;20180;-71
2022/09/26 02:27:49;;;;;;;11.13;2.80;;;20.50;59.40;;;;;;5045604;28;20193;-71
2022/09/26 02:30:16;;;;;;;6.47;3.20;;;20.30;59.80;;;;;;5047545;28;20180;-72
2022/09/26 02:32:44;;;;;;;3.83;2.43;;;20.50;60.60;;;;;;5043136;28;20178;-71
2022/09/26 02:35:57;;;;;;;5.00;2.13;;;20.30;60.70;;;;;;5044705;28;20804;-71
2022/09/26 02:37:59;;;;;;;8.13;2.83;;;20.50;60.70;;;;;;5052974;28;20646;-70
2022/09/26 02:40:51;;;;;;;7.47;2.50;;;20.40;61.20;;;;;;5048343;28;20180;-73
2022/09/26 02:43:43;;;;;;;6.37;2.30;;;20.50;61.40;;;;;;5052841;28;20215;-70
2022/09/26 02:46:48;;;;;;;6.20;2.50;;;20.50;61.30;;;;;;5054519;28;20171;-72
2022/09/26 02:49:48;;;;;;;6.00;2.87;;;20.60;60.90;;;;;;5034483;28;20172;-70
2022/09/26 02:52:34;;;;;;;4.40;2.50;;;20.80;60.30;;;;;;5051308;28;20184;-72
2022/09/26 02:55:28;;;;;;;6.67;2.77;;;20.80;59.40;;;;;;5052479;28;20515;-71
2022/09/26 02:58:21;;;;;;;6.00;2.30;;;20.80;59.90;;;;;;5050984;28;20255;-71
2022/09/26 03:00:52;;;;;;;13.00;3.07;;;20.80;59.90;;;;;;5050054;28;20176;-71
2022/09/26 03:03:54;;;;;;;9.30;2.30;;;20.70;60.20;;;;;;5046006;28;20668;-71
2022/09/26 03:06:29;;;;;;;8.53;2.30;;;20.80;59.80;;;;;;5043902;28;20689;-73
2022/09/26 03:08:58;;;;;;;7.73;2.40;;;20.70;60.20;;;;;;5051052;28;20225;-71
2022/09/26 03:11:28;;;;;;;8.13;2.77;;;20.80;59.80;;;;;;5053614;28;20721;-71
2022/09/26 03:13:57;;;;;;;4.97;2.33;;;21.20;59.10;;;;;;5047279;28;20194;-68
2022/09/26 03:16:29;;;;;;;5.33;2.03;;;21.30;58.70;;;;;;5051411;28;20172;-67
2022/09/26 03:19:26;;;;;;;9.53;2.13;;;21.30;58.80;;;;;;5050671;28;20184;-72
2022/09/26 03:21:54;;;;;;;4.10;1.90;;;21.00;58.50;;;;;;5053608;28;20179;-72
2022/09/26 03:24:22;;;;;;;7.93;2.40;;;20.60;60.20;;;;;;5042627;28;20298;-72
2022/09/26 03:26:56;;;;;;;4.80;2.17;;;20.50;60.90;;;;;;5050841;28;20180;-72
2022/09/26 03:29:23;;;;;;;9.57;2.23;;;20.50;61.20;;;;;;5042049;28;20555;-73
2022/09/26 03:31:51;;;;;;;4.77;1.70;;;20.20;62.00;;;;;;5045729;28;20183;-72
2022/09/26 03:34:19;;;;;;;3.57;1.93;;;20.20;62.50;;;;;;5044276;28;20191;-70
2022/09/26 03:36:46;;;;;;;5.80;2.27;;;20.00;62.80;;;;;;5049666;28;20242;-72
2022/09/26 03:39:13;;;;;;;7.60;2.23;;;19.70;62.70;;;;;;5047546;28;20241;-72
2022/09/26 03:41:41;;;;;;;5.13;2.30;;;19.70;63.30;;;;;;5053545;28;20682;-73
2022/09/26 03:44:09;;;;;;;4.53;2.00;;;19.70;63.20;;;;;;5048722;28;20219;-73
2022/09/26 03:46:37;;;;;;;4.33;1.90;;;20.00;62.90;;;;;;5049744;28;20205;-71
2022/09/26 03:49:04;;;;;;;7.93;1.80;;;20.90;60.40;;;;;;5050408;28;20207;-72
2022/09/26 03:51:32;;;;;;;5.97;2.30;;;21.50;58.50;;;;;;5041801;28;20634;-73
2022/09/26 03:53:59;;;;;;;4.43;1.63;;;22.00;57.30;;;;;;5053479;28;20192;-72
2022/09/26 03:56:27;;;;;;;3.33;1.70;;;22.30;55.70;;;;;;5053455;28;20699;-73
2022/09/26 03:58:54;;;;;;;5.20;2.07;;;22.80;54.80;;;;;;5053799;28;20183;-71
2022/09/26 04:01:22;;;;;;;6.03;1.80;;;23.00;53.20;;;;;;5052526;28;20270;-72
2022/09/26 04:03:51;;;;;;;6.00;2.00;;;22.80;54.30;;;;;;5047947;28;20227;-73
2022/09/26 04:06:19;;;;;;;7.83;1.83;;;23.10;53.90;;;;;;5050133;28;20200;-72
2022/09/26 04:08:48;;;;;;;6.80;2.00;;;22.50;54.60;;;;;;5052087;28;20302;-72
2022/09/26 04:11:18;;;;;;;4.97;1.90;;;22.00;56.00;;;;;;5052195;28;20175;-72
2022/09/26 04:13:46;;;;;;;6.70;1.83;;;21.30;58.30;;;;;;5046639;28;20186;-71
2022/09/26 04:16:14;;;;;;;4.80;1.93;;;21.20;59.00;;;;;;5048593;28;20180;-71
2022/09/26 04:18:41;;;;;;;6.40;1.80;;;21.40;58.00;;;;;;5033661;28;20260;-71
2022/09/26 04:21:12;;;;;;;3.03;1.63;;;21.70;57.50;;;;;;5048465;28;20282;-69
2022/09/26 04:23:41;;;;;;;4.40;1.70;;;22.30;55.70;;;;;;5051579;28;20621;-68
2022/09/26 04:26:11;;;;;;;7.30;1.70;;;22.80;53.60;;;;;;5052107;28;20216;-72
2022/09/26 04:28:40;;;;;;;4.73;2.07;;;22.80;53.80;;;;;;5049094;28;20224;-70
2022/09/26 04:31:09;;;;;;;4.87;1.77;;;22.30;55.60;;;;;;5051364;28;20184;-67
2022/09/26 04:33:40;;;;;;;6.07;2.03;;;21.80;56.60;;;;;;5036475;28;20554;-71
2022/09/26 04:36:10;;;;;;;5.30;1.57;;;21.80;56.50;;;;;;5040852;28;20180;-70
2022/09/26 04:38:38;;;;;;;4.93;2.07;;;21.70;57.50;;;;;;5052076;28;20274;-68
2022/09/26 04:41:07;;;;;;;4.83;1.90;;;21.60;57.40;;;;;;5047716;28;20616;-72
2022/09/26 04:43:35;;;;;;;4.20;1.63;;;21.60;57.80;;;;;;5052666;28;20219;-69
2022/09/26 04:46:11;;;;;;;7.50;2.53;;;21.50;57.90;;;;;;5052537;28;20204;-69
2022/09/26 04:48:38;;;;;;;7.80;2.20;;;21.40;58.30;;;;;;5045171;28;20530;-68
2022/09/26 04:51:12;;;;;;;5.03;1.83;;;21.10;59.20;;;;;;5045532;28;20175;-69
2022/09/26 04:53:40;;;;;;;4.57;1.70;;;21.30;58.10;;;;;;5034191;28;20180;-68
2022/09/26 04:56:12;;;;;;;5.90;1.97;;;20.90;59.30;;;;;;5046674;28;20670;-69
2022/09/26 04:58:40;;;;;;;9.83;1.93;;;20.90;59.10;;;;;;5042419;28;20177;-68
2022/09/26 05:01:13;;;;;;;5.97;2.30;;;21.10;58.50;;;;;;5042046;28;20180;-71
2022/09/26 05:03:41;;;;;;;5.80;1.77;;;21.30;58.10;;;;;;5035927;28;20282;-72
2022/09/26 05:06:10;;;;;;;4.60;1.90;;;21.70;56.90;;;;;;5045814;28;20210;-70
2022/09/26 05:08:45;;;;;;;5.67;1.63;;;22.10;56.00;;;;;;5039690;28;20231;-69
2022/09/26 05:11:13;;;;;;;5.57;1.87;;;23.10;53.00;;;;;;5051506;28;20600;-69
2022/09/26 05:13:40;;;;;;;10.67;1.97;;;23.40;51.80;;;;;;5047044;28;20255;-70
2022/09/26 05:16:09;;;;;;;5.40;1.70;;;23.40;51.40;;;;;;5052458;28;20180;-70
2022/09/26 05:18:38;;;;;;;7.83;2.03;;;23.30;52.10;;;;;;5051872;28;20274;-70
2022/09/26 05:21:06;;;;;;;6.13;1.67;;;23.30;52.70;;;;;;5049888;28;20198;-72
2022/09/26 05:26:26;;;;;;;4.70;1.57;;;23.80;50.80;;;;;;5032273;28;20227;-71
2022/09/26 05:29:00;;;;;;;3.93;1.80;;;23.60;51.60;;;;;;5048757;28;20229;-71
2022/09/26 05:31:29;;;;;;;6.63;2.00;;;23.80;50.80;;;;;;5048260;28;20534;-70
2022/09/26 05:33:56;;;;;;;2.30;1.30;;;24.40;49.50;;;;;;5051575;28;20605;-70
2022/09/26 05:36:25;;;;;;;3.13;1.63;;;23.70;50.60;;;;;;5053240;28;20183;-70
2022/09/26 05:38:52;;;;;;;4.70;2.00;;;22.90;53.50;;;;;;5055336;28;20258;-70
2022/09/26 05:41:21;;;;;;;3.33;1.63;;;22.10;55.70;;;;;;5035688;28;20284;-68
2022/09/26 05:43:49;;;;;;;8.03;2.00;;;21.60;57.20;;;;;;5047413;28;20672;-69
2022/09/26 05:46:17;;;;;;;6.20;1.70;;;20.90;59.10;;;;;;5055575;28;20198;-71
2022/09/26 05:48:44;;;;;;;4.27;2.07;;;20.50;60.90;;;;;;5054157;28;20665;-72
2022/09/26 05:51:13;;;;;;;5.87;1.87;;;20.50;61.30;;;;;;5055199;28;20275;-71
2022/09/26 05:53:43;;;;;;;5.73;1.80;;;20.30;61.30;;;;;;5055865;28;20176;-70
2022/09/26 05:56:12;;;;;;;5.50;2.13;;;20.10;62.80;;;;;;5052838;28;20207;-71
2022/09/26 05:58:40;;;;;;;4.33;1.70;;;20.10;62.70;;;;;;5055575;28;20186;-73
2022/09/26 06:01:09;;;;;;;3.10;1.80;;;19.80;63.80;;;;;;5048418;28;20574;-71
2022/09/26 06:03:37;;;;;;;7.13;1.83;;;19.60;64.60;;;;;;5051232;28;20208;-71
2022/09/26 06:06:18;;;;;;;5.77;2.00;;;19.50;65.10;;;;;;5060302;28;20218;-69
2022/09/26 06:08:46;;;;;;;5.20;2.10;;;19.30;65.50;;;;;;5061987;28;20181;-71
2022/09/26 06:11:16;;;;;;;6.50;2.33;;;19.30;66.10;;;;;;5058870;28;20654;-71
2022/09/26 06:13:47;;;;;;;5.30;2.40;;;19.30;65.80;;;;;;5053046;28;20200;-68
2022/09/26 06:16:20;;;;;;;5.90;2.73;;;19.30;66.10;;;;;;5049921;28;20184;-68
2022/09/26 06:18:49;;;;;;;4.90;2.17;;;19.40;66.20;;;;;;5046843;28;20259;-67
2022/09/26 06:21:18;;;;;;;3.47;1.80;;;19.50;66.00;;;;;;5052920;28;20184;-66
2022/09/26 06:23:46;;;;;;;7.80;2.03;;;19.30;65.90;;;;;;5053660;28;20211;-67
2022/09/26 06:26:19;;;;;;;5.80;2.13;;;19.20;66.70;;;;;;5049555;28;20183;-67
2022/09/26 06:28:46;;;;;;;6.77;2.00;;;19.20;66.70;;;;;;5049395;28;20177;-67
2022/09/26 06:31:15;;;;;;;4.97;2.13;;;19.10;66.70;;;;;;5053030;28;20532;-68
2022/09/26 06:33:43;;;;;;;6.07;2.27;;;19.00;66.30;;;;;;5048866;28;20517;-68
2022/09/26 06:36:11;;;;;;;5.80;2.00;;;19.10;66.70;;;;;;5047899;28;20218;-67
2022/09/26 06:38:39;;;;;;;8.07;2.17;;;19.00;67.40;;;;;;5051504;28;20287;-68
2022/09/26 06:41:06;;;;;;;6.40;2.20;;;18.90;67.80;;;;;;5047547;28;20231;-68
2022/09/26 06:43:33;;;;;;;4.77;1.80;;;18.80;68.10;;;;;;5052958;28;20675;-68
2022/09/26 06:46:01;;;;;;;3.60;1.80;;;18.80;67.80;;;;;;5049661;28;20521;-69
2022/09/26 06:48:28;;;;;;;5.03;1.73;;;18.80;67.50;;;;;;5043949;28;20219;-68
2022/09/26 06:50:58;;;;;;;3.90;1.80;;;18.70;67.50;;;;;;5049947;28;20624;-67
2022/09/26 06:53:26;;;;;;;3.13;1.73;;;18.70;68.10;;;;;;5045487;28;20173;-68
2022/09/26 06:55:54;;;;;;;7.93;2.13;;;18.60;68.70;;;;;;5054375;28;20184;-68
2022/09/26 06:58:21;;;;;;;5.17;1.90;;;18.70;69.10;;;;;;5046474;28;20254;-71
2022/09/26 07:00:48;;;;;;;6.27;2.00;;;18.50;69.50;;;;;;5045366;28;20277;-68
2022/09/26 07:03:16;;;;;;;5.43;1.80;;;18.40;69.80;;;;;;5044832;28;20212;-67
2022/09/26 07:05:44;;;;;;;5.50;1.90;;;18.40;69.80;;;;;;5049995;28;20215;-68
2022/09/26 07:08:11;;;;;;;8.40;2.17;;;18.50;70.00;;;;;;5042370;28;20623;-67
2022/09/26 07:10:39;;;;;;;6.30;2.10;;;18.40;70.00;;;;;;5044343;28;20187;-70
2022/09/26 07:13:09;;;;;;;4.93;2.20;;;18.30;69.90;;;;;;5051387;28;20241;-66
2022/09/26 07:15:36;;;;;;;2.77;1.83;;;18.20;70.00;;;;;;5050117;28;20180;-66
2022/09/26 07:18:06;;;;;;;7.07;4.87;;;18.10;70.40;;;;;;5044461;28;20207;-67
2022/09/26 07:20:39;;;;;;;11.30;5.60;;;18.00;70.60;;;;;;5049172;28;20192;-69
2022/09/26 07:23:09;;;;;;;10.73;4.83;;;18.00;71.00;;;;;;5045399;28;20272;-67
2022/09/26 07:25:38;;;;;;;9.80;2.50;;;17.90;71.10;;;;;;5047219;28;20180;-67
2022/09/26 07:28:08;;;;;;;4.83;2.70;;;17.90;71.10;;;;;;5045535;28;20266;-66
2022/09/26 07:30:35;;;;;;;6.67;2.67;;;17.80;71.60;;;;;;5051643;28;20263;-68
2022/09/26 07:33:04;;;;;;;9.97;2.43;;;17.80;71.90;;;;;;5046580;28;20648;-67
2022/09/26 07:35:36;;;;;;;4.10;2.60;;;17.80;72.10;;;;;;5049212;28;20694;-66
2022/09/26 07:38:04;;;;;;;4.30;2.70;;;17.80;72.30;;;;;;5052035;28;20196;-71
2022/09/26 07:40:31;;;;;;;4.40;2.20;;;17.80;72.40;;;;;;5038911;28;20199;-68
2022/09/26 07:43:02;;;;;;;5.03;2.50;;;17.80;72.70;;;;;;5044324;28;20704;-67
2022/09/26 07:51:00;;;;;;;7.50;2.40;;;17.70;73.00;;;;;;5050125;28;20595;-70
2022/09/26 07:53:29;;;;;;;7.63;2.37;;;17.70;73.40;;;;;;5049896;28;20610;-68
2022/09/26 07:56:04;;;;;;;6.07;2.30;;;17.60;73.50;;;;;;5051147;28;20186;-69
2022/09/26 07:58:40;;;;;;;4.03;2.53;;;17.60;73.60;;;;;;5053300;28;20183;-71
2022/09/26 08:01:10;;;;;;;7.50;3.00;;;17.60;73.60;;;;;;5051520;28;20266;-69
2022/09/26 08:03:39;;;;;;;6.23;2.67;;;17.60;73.90;;;;;;5052830;28;20563;-69
2022/09/26 08:06:07;;;;;;;10.37;7.47;;;17.60;74.00;;;;;;5049976;28;20183;-70
2022/09/26 08:08:35;;;;;;;10.10;6.67;;;17.60;74.10;;;;;;5043782;28;20270;-71
2022/09/26 08:11:04;;;;;;;7.97;5.40;;;17.50;74.20;;;;;;5050904;28;20218;-71
2022/09/26 08:13:32;;;;;;;5.23;2.90;;;17.60;74.50;;;;;;5048666;28;20184;-69
2022/09/26 08:16:04;;;;;;;3.40;2.30;;;17.50;74.30;;;;;;5048458;28;20178;-68
2022/09/26 08:18:33;;;;;;;7.73;3.20;;;17.50;74.40;;;;;;5046959;28;20602;-70
2022/09/26 08:21:04;;;;;;;5.07;2.37;;;17.50;74.50;;;;;;5049718;28;20654;-71
2022/09/26 08:23:32;;;;;;;4.63;2.70;;;17.50;74.50;;;;;;5049144;28;20310;-71
2022/09/26 08:26:06;;;;;;;9.50;2.47;;;17.50;74.70;;;;;;5046134;28;20169;-71
2022/09/26 08:28:35;;;;;;;7.07;2.93;;;17.50;74.90;;;;;;5037524;28;20189;-70
2022/09/26 08:31:03;;;;;;;6.87;3.03;;;17.40;75.10;;;;;;5047559;28;20191;-69
2022/09/26 08:33:37;;;;;;;5.73;3.30;;;17.40;75.30;;;;;;5051826;28;20188;-68
2022/09/26 08:36:11;;;;;;;5.00;2.77;;;17.40;75.50;;;;;;5050375;28;20719;-71
2022/09/26 08:38:38;;;;;;;3.73;3.10;;;17.50;75.70;;;;;;5047712;28;20186;-71
2022/09/26 08:41:33;;;;;;;11.10;3.23;;;17.40;75.80;;;;;;5049632;28;20589;-67
2022/09/26 08:44:36;;;;;;;4.17;2.90;;;17.40;76.10;;;;;;5044382;28;20253;-67
2022/09/26 08:48:01;;;;;;;7.43;3.50;;;17.40;76.30;;;;;;5047372;28;20175;-70
2022/09/26 08:50:41;;;;;;;6.97;3.17;;;17.30;76.60;;;;;;5044359;28;20180;-68
2022/09/26 08:53:28;;;;;;;8.10;3.07;;;17.30;76.70;;;;;;5047920;28;20460;-69
2022/09/26 08:55:57;;;;;;;8.27;3.20;;;17.30;76.90;;;;;;5039885;28;20937;-69
2022/09/26 08:58:42;;;;;;;12.47;3.60;;;17.30;77.10;;;;;;5065995;28;20175;-71
2022/09/26 09:01:18;;;;;;;9.43;3.43;;;17.30;77.10;;;;;;5053279;28;20174;-71
2022/09/26 09:04:00;;;;;;;7.60;3.30;;;17.20;77.20;;;;;;5052222;28;20272;-69
2022/09/26 09:06:29;;;;;;;8.97;3.90;;;17.20;77.30;;;;;;5045043;28;20183;-71
2022/09/26 09:08:57;;;;;;;13.47;9.77;;;17.30;77.40;;;;;;5064546;28;20198;-70
2022/09/26 09:12:02;;;;;;;11.43;8.30;;;17.20;77.50;;;;;;5056963;28;20190;-70
2022/09/26 09:14:42;;;;;;;6.90;3.10;;;17.30;77.50;;;;;;5055874;28;20545;-66
2022/09/26 09:17:36;;;;;;;7.20;3.17;;;17.20;77.60;;;;;;5056312;28;20204;-72
2022/09/26 09:20:33;;;;;;;5.97;3.00;;;17.20;77.70;;;;;;5062180;28;20182;-69
2022/09/26 09:23:28;;;;;;;7.07;3.00;;;17.20;77.90;;;;;;5056664;28;20217;-68
2022/09/26 09:26:19;;;;;;;7.47;2.93;;;17.20;78.00;;;;;;5045112;28;20260;-71
2022/09/26 09:29:15;;;;;;;7.37;3.10;;;17.20;78.20;;;;;;5056218;28;20172;-72
2022/09/26 09:31:44;;;;;;;6.70;3.20;;;17.20;78.20;;;;;;5055477;28;20198;-71
2022/09/26 09:34:33;;;;;;;11.10;3.27;;;17.20;78.40;;;;;;5047098;28;20221;-72
2022/09/26 09:37:29;;;;;;;6.13;2.90;;;17.20;78.50;;;;;;5055568;28;20176;-70
2022/09/26 09:39:57;;;;;;;5.93;3.17;;;17.20;78.40;;;;;;5058538;28;20176;-68
2022/09/26 09:42:50;;;;;;;10.87;3.27;;;17.20;78.50;;;;;;5053536;28;20216;-71
2022/09/26 09:45:36;;;;;;;5.07;2.67;;;17.20;78.50;;;;;;5068417;28;20660;-71
2022/09/26 09:48:05;;;;;;;3.40;2.43;;;17.20;78.60;;;;;;5055793;28;20180;-68
2022/09/26 09:51:04;;;;;;;11.07;3.83;;;17.20;78.70;;;;;;5054462;28;20195;-68
2022/09/26 09:53:49;;;;;;;6.73;3.07;;;17.20;78.80;;;;;;5048465;28;20210;-71
2022/09/26 09:56:45;;;;;;;8.43;3.00;;;17.20;78.80;;;;;;5065427;28;20284;-69
2022/09/26 09:59:32;;;;;;;11.20;3.53;;;17.20;78.90;;;;;;5053678;28;20186;-70
2022/09/26 10:02:12;;;;;;;11.07;2.97;;;17.20;79.10;;;;;;5048943;28;20656;-69
2022/09/26 10:04:43;;;;;;;9.73;3.33;;;17.20;79.30;;;;;;5048215;28;20237;-68
2022/09/26 10:07:10;;;;;;;7.63;2.90;;;17.20;79.30;;;;;;5044980;28;20188;-68
2022/09/26 10:09:42;;;;;;;5.43;2.73;;;17.20;79.30;;;;;;5050085;28;20290;-68
2022/09/26 10:12:16;;;;;;;5.97;2.87;;;17.20;79.40;;;;;;5047492;28;20513;-69
2022/09/26 10:15:11;;;;;;;6.70;3.17;;;17.20;79.50;;;;;;5055177;28;20240;-68
2022/09/26 10:17:39;;;;;;;7.37;2.80;;;17.20;79.50;;;;;;5058506;28;20179;-71
2022/09/26 10:20:26;;;;;;;5.07;2.90;;;17.20;79.40;;;;;;5055114;28;20329;-71
2022/09/26 10:22:53;;;;;;;10.03;3.93;;;17.20;79.60;;;;;;5050691;28;20266;-70
2022/09/26 10:25:26;;;;;;;6.93;2.80;;;17.20;79.70;;;;;;5065353;28;20654;-70
2022/09/26 10:27:59;;;;;;;11.60;2.90;;;17.20;79.70;;;;;;5062450;28;20190;-67
2022/09/26 10:30:32;;;;;;;5.77;2.70;;;17.20;79.70;;;;;;5054562;28;20177;-70
2022/09/26 10:33:03;;;;;;;8.07;3.17;;;17.10;79.70;;;;;;5052048;28;20183;-69
2022/09/26 10:35:51;;;;;;;7.43;3.10;;;17.10;79.90;;;;;;5055016;28;20213;-69
2022/09/26 10:38:21;;;;;;;8.87;3.07;;;17.10;80.00;;;;;;5054788;28;20656;-69
2022/09/26 10:40:58;;;;;;;10.63;3.00;;;17.10;80.00;;;;;;5053631;28;20232;-68
2022/09/26 10:43:34;;;;;;;8.33;2.97;;;17.10;80.10;;;;;;5064176;28;20698;-67
2022/09/26 10:46:04;;;;;;;9.87;3.90;;;17.00;80.20;;;;;;5050772;28;20236;-70
2022/09/26 10:48:52;;;;;;;8.30;3.50;;;17.00;80.40;;;;;;5053313;28;20191;-68
2022/09/26 10:51:30;;;;;;;7.67;3.40;;;17.00;80.40;;;;;;5045463;28;20197;-68
2022/09/26 10:54:15;;;;;;;7.47;2.90;;;17.00;80.60;;;;;;5054617;28;20210;-72
2022/09/26 10:56:48;;;;;;;7.80;3.03;;;17.00;80.60;;;;;;5049175;28;20648;-68
2022/09/26 10:59:17;;;;;;;8.47;4.67;;;17.00;80.60;;;;;;5054397;28;20210;-71
2022/09/26 11:01:54;;;;;;;19.77;13.07;;;17.00;80.80;;;;;;5055560;28;20190;-72
2022/09/26 11:07:41;;;;;;;6.20;3.03;;;16.90;81.10;;;;;;5036889;28;20234;-69
2022/09/26 11:10:15;;;;;;;6.57;3.13;;;16.90;81.20;;;;;;5054428;28;20556;-71
2022/09/26 11:12:56;;;;;;;6.10;2.77;;;16.90;81.20;;;;;;5055570;28;20181;-70
2022/09/26 11:15:24;;;;;;;9.63;3.20;;;16.90;81.30;;;;;;5054182;28;20251;-70
2022/09/26 11:17:54;;;;;;;9.43;3.10;;;16.80;81.60;;;;;;5054719;28;20176;-68
2022/09/26 11:20:31;;;;;;;8.37;3.13;;;16.80;81.70;;;;;;5062768;28;20196;-67
2022/09/26 11:23:26;;;;;;;16.90;3.33;;;16.80;81.70;;;;;;5057598;28;20198;-67
2022/09/26 11:26:23;;;;;;;8.97;2.93;;;16.80;81.80;;;;;;5050542;28;20194;-66
2022/09/26 11:29:36;;;;;;;7.83;3.17;;;16.80;81.80;;;;;;5050383;28;20186;-67
2022/09/26 11:32:04;;;;;;;9.40;3.10;;;16.80;81.80;;;;;;5054906;28;20715;-67
2022/09/26 11:34:34;;;;;;;11.07;3.27;;;16.80;81.90;;;;;;5055160;28;22012;-67
2022/09/26 11:37:46;;;;;;;10.33;2.87;;;16.80;81.80;;;;;;5050526;28;20189;-68
2022/09/26 11:40:27;;;;;;;12.20;3.40;;;16.80;81.80;;;;;;5056251;28;20265;-68
2022/09/26 11:43:16;;;;;;;8.77;3.30;;;16.80;81.80;;;;;;5054456;28;20234;-69
2022/09/26 11:46:19;;;;;;;7.27;2.93;;;16.80;82.10;;;;;;5052204;28;20253;-71
2022/09/26 11:49:05;;;;;;;5.90;2.93;;;16.80;82.30;;;;;;5065241;28;20189;-68
2022/09/26 11:51:48;;;;;;;10.03;3.30;;;16.70;82.40;;;;;;5037418;28;20610;-69
2022/09/26 11:54:45;;;;;;;6.43;3.23;;;16.80;82.40;;;;;;5060322;28;20185;-69
2022/09/26 11:57:26;;;;;;;10.87;3.20;;;16.80;82.40;;;;;;5053108;28;20533;-70
2022/09/26 12:00:35;;;;;;;6.90;2.90;;;16.80;82.60;;;;;;5054645;28;20177;-69
2022/09/26 12:03:18;;;;;;;6.97;2.87;;;16.80;82.40;;;;;;5038791;28;20604;-69
2022/09/26 12:05:46;;;;;;;10.40;3.40;;;16.80;82.60;;;;;;5054418;28;20180;-68
2022/09/26 12:08:34;;;;;;;6.63;3.17;;;16.80;82.50;;;;;;5053061;28;20642;-70
2022/09/26 12:11:32;;;;;;;10.03;2.50;;;16.80;82.70;;;;;;5054297;28;20187;-69
2022/09/26 12:14:24;;;;;;;8.93;3.80;;;16.80;82.80;;;;;;5039974;28;20176;-70
2022/09/26 12:17:34;;;;;;;8.40;3.10;;;16.80;82.80;;;;;;5062025;28;20642;-71
2022/09/26 12:20:12;;;;;;;9.43;2.90;;;16.80;82.90;;;;;;5052364;28;20535;-72
2022/09/26 12:22:47;;;;;;;13.07;3.70;;;16.80;82.90;;;;;;5048136;28;20710;-68
2022/09/26 12:25:29;;;;;;;12.13;3.53;;;16.80;83.00;;;;;;5060709;28;20215;-69
2022/09/26 12:28:30;;;;;;;11.50;3.40;;;16.80;83.10;;;;;;5052857;28;20527;-70
2022/09/26 12:31:04;;;;;;;6.87;3.67;;;16.70;83.30;;;;;;5053111;28;20657;-70
2022/09/26 12:33:34;;;;;;;8.33;3.67;;;16.70;83.30;;;;;;5052748;28;20179;-71
2022/09/26 12:36:38;;;;;;;8.20;3.20;;;16.70;83.30;;;;;;5058866;28;20197;-70
2022/09/26 12:39:39;;;;;;;11.40;3.33;;;16.70;83.30;;;;;;5052778;28;20180;-71
2022/09/26 12:42:27;;;;;;;11.37;3.40;;;16.70;83.50;;;;;;5042230;28;20326;-70
2022/09/26 12:45:46;;;;;;;8.53;3.27;;;16.70;83.40;;;;;;5040553;28;20299;-68
2022/09/26 12:48:31;;;;;;;12.47;3.07;;;16.70;83.70;;;;;;5040263;28;20666;-69
2022/09/26 12:51:36;;;;;;;6.10;2.93;;;16.70;83.70;;;;;;5050887;28;20533;-66
2022/09/26 12:54:17;;;;;;;11.00;3.07;;;16.60;83.90;;;;;;5051681;28;20545;-71
2022/09/26 12:56:48;;;;;;;9.93;3.63;;;16.70;83.80;;;;;;5051237;28;20652;-72
2022/09/26 12:59:40;;;;;;;11.63;3.40;;;16.60;84.00;;;;;;5052650;28;20531;-72
2022/09/26 13:02:49;;;;;;;10.10;4.93;;;16.60;84.10;;;;;;5053286;28;20193;-72
2022/09/26 13:05:29;;;;;;;16.87;9.37;;;16.60;84.10;;;;;;5041012;28;20188;-71
2022/09/26 13:08:19;;;;;;;8.20;3.30;;;16.50;84.40;;;;;;5052277;28;20180;-72
2022/09/26 13:11:05;;;;;;;8.50;3.47;;;16.50;84.60;;;;;;5057845;28;20170;-69
2022/09/26 13:13:35;;;;;;;7.27;3.17;;;16.50;84.70;;;;;;5039299;28;20177;-68
2022/09/26 13:16:22;;;;;;;9.77;3.77;;;16.40;84.80;;;;;;5065690;28;20704;-71
2022/09/26 13:18:58;;;;;;;11.33;3.93;;;16.40;85.10;;;;;;5040455;28;20218;-72
2022/09/26 13:22:02;;;;;;;5.20;2.73;;;16.30;85.00;;;;;;5052533;28;20211;-70
2022/09/26 13:24:54;;;;;;;14.40;3.90;;;16.30;85.20;;;;;;5049459;28;20219;-69
2022/09/26 13:27:27;;;;;;;11.63;3.70;;;16.30;85.30;;;;;;5049672;28;20188;-70
2022/09/26 13:30:18;;;;;;;9.60;3.37;;;16.30;85.60;;;;;;5050934;28;20209;-72
2022/09/26 13:32:52;;;;;;;9.53;3.93;;;16.30;85.50;;;;;;5060347;28;20190;-73
2022/09/26 13:35:26;;;;;;;9.27;3.50;;;16.20;85.70;;;;;;5051344;28;20175;-70
2022/09/26 13:38:18;;;;;;;8.63;3.67;;;16.20;85.80;;;;;;5052097;28;20673;-69
2022/09/26 13:41:14;;;;;;;12.17;3.63;;;16.20;86.00;;;;;;5051865;28;20593;-71
2022/09/26 13:44:21;;;;;;;9.63;3.87;;;16.20;86.10;;;;;;5051588;28;20201;-68
2022/09/26 13:47:27;;;;;;;10.03;3.27;;;16.10;86.20;;;;;;5049594;28;20176;-68